createdAt,value
2023-02-06T00:02:49.108Z,3.70
2023-02-06T00:06:58.792Z,3.80
2023-02-06T00:11:09.584Z,3.80
2023-02-06T00:15:18.160Z,3.90
2023-02-06T00:19:28.822Z,3.80
2023-02-06T00:23:39.394Z,3.80
2023-02-06T00:27:49.460Z,3.70
2023-02-06T00:31:58.021Z,3.70
2023-02-06T00:36:09.351Z,3.70
2023-02-06T00:40:18.685Z,3.60
2023-02-06T00:44:29.929Z,3.40
2023-02-06T00:48:38.652Z,3.20
2023-02-06T00:52:47.493Z,3.10
2023-02-06T00:56:56.246Z,3.10
2023-02-06T01:01:04.937Z,3.00
2023-02-06T01:05:13.562Z,2.90
2023-02-06T01:09:26.680Z,2.90
2023-02-06T01:13:36.723Z,2.90
2023-02-06T01:17:45.350Z,3.00
2023-02-06T01:21:54.091Z,3.10
2023-02-06T01:26:08.323Z,3.00
2023-02-06T01:30:16.902Z,3.00
2023-02-06T01:34:25.468Z,3.10
2023-02-06T01:38:34.307Z,3.10
2023-02-06T01:42:43.027Z,3.20
2023-02-06T01:46:54.752Z,3.20
2023-02-06T01:51:08.321Z,3.20
2023-02-06T01:55:17.528Z,3.20
2023-02-06T01:59:31.479Z,3.30
2023-02-06T02:03:42.664Z,3.20
2023-02-06T02:08:02.977Z,3.20
2023-02-06T02:12:11.863Z,3.20
2023-02-06T02:16:40.304Z,3.20
2023-02-06T02:21:16.031Z,3.10
2023-02-06T02:25:47.051Z,3.00
2023-02-06T02:30:14.933Z,2.90
2023-02-06T02:39:06.046Z,2.70
2023-02-06T02:43:26.618Z,2.80
2023-02-06T02:47:38.481Z,2.70
2023-02-06T02:51:51.599Z,2.60
2023-02-06T02:56:00.381Z,2.60
2023-02-06T03:00:10.827Z,2.70
2023-02-06T03:04:25.646Z,2.80
2023-02-06T03:09:07.587Z,2.90
2023-02-06T03:13:20.634Z,2.90
2023-02-06T03:17:38.078Z,2.80
2023-02-06T03:21:48.185Z,2.90
2023-02-06T03:25:59.838Z,2.80
2023-02-06T03:30:10.792Z,2.80
2023-02-06T03:34:32.647Z,2.80
2023-02-06T03:38:43.023Z,2.80
2023-02-06T03:42:54.730Z,2.80
2023-02-06T03:47:05.740Z,2.80
2023-02-06T03:51:20.318Z,2.80
2023-02-06T03:55:29.057Z,2.70
2023-02-06T03:59:37.617Z,2.70
2023-02-06T04:03:46.542Z,2.70
2023-02-06T04:07:59.788Z,2.70
2023-02-06T04:12:08.956Z,2.60
2023-02-06T04:16:18.958Z,2.60
2023-02-06T04:20:27.885Z,2.60
2023-02-06T04:24:39.889Z,2.60
2023-02-06T04:28:48.554Z,2.60
2023-02-06T04:32:57.351Z,2.60
2023-02-06T04:37:09.035Z,2.70
2023-02-06T04:41:17.917Z,2.70
2023-02-06T04:45:28.259Z,2.70
2023-02-06T04:49:36.821Z,2.70
2023-02-06T04:53:45.762Z,2.80
2023-02-06T04:57:54.492Z,2.70
2023-02-06T05:02:03.101Z,2.80
2023-02-06T05:06:11.811Z,2.80
2023-02-06T05:10:23.519Z,2.80
2023-02-06T05:14:32.382Z,2.80
2023-02-06T05:18:42.085Z,2.80
2023-02-06T05:22:50.682Z,2.70
2023-02-06T05:26:59.278Z,2.60
2023-02-06T05:31:09.206Z,2.60
2023-02-06T05:35:18.280Z,2.50
2023-02-06T05:39:28.096Z,2.50
2023-02-06T05:43:38.367Z,2.40
2023-02-06T05:47:49.330Z,2.40
2023-02-06T05:51:57.866Z,2.50
2023-02-06T05:56:06.765Z,2.40
2023-02-06T06:00:15.932Z,2.30
2023-02-06T06:04:24.540Z,2.40
2023-02-06T06:08:33.704Z,2.30
2023-02-06T06:12:42.281Z,2.40
2023-02-06T06:16:50.897Z,2.40
2023-02-06T06:20:59.460Z,2.50
2023-02-06T06:25:08.341Z,2.50
2023-02-06T06:29:25.927Z,2.50
2023-02-06T06:33:41.235Z,2.50
2023-02-06T06:37:52.280Z,2.50
2023-02-06T06:42:00.955Z,2.40
2023-02-06T06:46:12.496Z,2.40
2023-02-06T06:50:21.108Z,2.30
2023-02-06T06:54:29.806Z,2.40
2023-02-06T06:58:41.060Z,2.40
2023-02-06T07:02:51.276Z,2.30
2023-02-06T07:06:59.890Z,2.20
2023-02-06T07:11:10.072Z,2.30
2023-02-06T07:15:18.642Z,2.30
2023-02-06T07:19:27.201Z,2.10
2023-02-06T07:23:37.967Z,2.20
2023-02-06T07:27:47.127Z,2.20
2023-02-06T07:31:55.711Z,2.30
2023-02-06T07:36:04.497Z,2.30
2023-02-06T07:40:16.490Z,2.40
2023-02-06T07:44:25.128Z,2.20
2023-02-06T07:48:33.760Z,2.40
2023-02-06T07:52:42.314Z,2.50
2023-02-06T07:56:50.863Z,2.60
2023-02-06T08:01:01.019Z,2.70
2023-02-06T08:05:10.327Z,2.70
2023-02-06T08:09:18.900Z,2.60
2023-02-06T08:13:27.447Z,2.60
2023-02-06T08:17:36.149Z,2.70
2023-02-06T08:21:44.683Z,2.70
2023-02-06T08:25:53.249Z,2.60
2023-02-06T08:30:01.913Z,2.60
2023-02-06T08:34:12.999Z,2.60
2023-02-06T08:38:21.914Z,2.70
2023-02-06T08:42:30.473Z,2.80
2023-02-06T08:46:40.077Z,2.90
2023-02-06T08:50:48.625Z,2.90
2023-02-06T08:54:57.208Z,3.00
2023-02-06T08:59:07.388Z,3.00
2023-02-06T09:03:15.930Z,3.00
2023-02-06T09:07:24.575Z,3.00
2023-02-06T09:11:33.675Z,3.00
2023-02-06T09:15:43.257Z,3.10
2023-02-06T09:19:51.834Z,3.20
2023-02-06T09:24:03.116Z,3.30
2023-02-06T09:28:12.891Z,3.40
2023-02-06T09:32:21.492Z,3.40
2023-02-06T09:36:30.587Z,3.50
2023-02-06T09:40:42.249Z,3.50
2023-02-06T09:44:53.987Z,3.60
2023-02-06T09:49:05.652Z,3.70
2023-02-06T09:53:30.174Z,3.80
2023-02-06T09:57:47.990Z,3.80
2023-02-06T10:02:17.255Z,3.80
2023-02-06T10:06:32.312Z,3.80
2023-02-06T10:10:52.757Z,3.80
2023-02-06T10:15:07.016Z,3.80
2023-02-06T10:19:24.290Z,3.90
2023-02-06T10:23:47.386Z,4.00
2023-02-06T10:28:01.083Z,4.10
2023-02-06T10:32:18.723Z,4.10
2023-02-06T10:36:46.916Z,4.20
2023-02-06T10:41:04.115Z,4.20
2023-02-06T10:45:35.199Z,4.30
2023-02-06T10:49:47.055Z,4.40
2023-02-06T10:53:59.115Z,4.50
2023-02-06T10:58:19.520Z,4.50
2023-02-06T11:03:06.177Z,4.50
2023-02-06T11:07:07.240Z,4.50
2023-02-06T11:11:21.995Z,4.50
2023-02-06T11:15:57.397Z,4.60
2023-02-06T11:20:14.762Z,4.60
2023-02-06T11:24:25.387Z,4.60
2023-02-06T11:28:35.677Z,4.80
2023-02-06T11:32:58.902Z,4.90
2023-02-06T11:37:00.886Z,5.00
2023-02-06T11:41:18.327Z,5.10
2023-02-06T11:45:30.349Z,5.00
2023-02-06T11:49:39.026Z,5.20
2023-02-06T11:54:02.617Z,5.20
2023-02-06T11:58:17.177Z,5.10
2023-02-06T12:02:28.865Z,5.10
2023-02-06T12:06:41.025Z,5.40
2023-02-06T12:10:54.451Z,5.50
2023-02-06T12:15:33.003Z,5.40
2023-02-06T12:19:31.680Z,5.30
2023-02-06T12:23:46.052Z,5.40
2023-02-06T12:27:57.759Z,5.50
2023-02-06T12:32:16.114Z,5.40
2023-02-06T12:36:27.570Z,5.40
2023-02-06T12:40:54.384Z,5.30
2023-02-06T12:45:06.037Z,5.20
2023-02-06T12:49:17.861Z,5.20
2023-02-06T12:53:32.136Z,5.30
2023-02-06T12:57:41.128Z,5.40
2023-02-06T13:01:55.754Z,5.20
2023-02-06T13:06:22.052Z,5.30
2023-02-06T13:10:30.629Z,5.20
2023-02-06T13:14:57.871Z,5.10
2023-02-06T13:19:06.535Z,5.30
2023-02-06T13:23:18.130Z,5.30
2023-02-06T13:27:40.546Z,5.30
2023-02-06T13:31:49.199Z,5.50
2023-02-06T13:36:00.185Z,5.50
2023-02-06T13:40:34.396Z,5.50
2023-02-06T13:44:43.201Z,5.60
2023-02-06T13:49:06.636Z,5.80
2023-02-06T13:58:50.659Z,5.90
2023-02-06T14:03:06.328Z,5.80
2023-02-06T14:07:37.577Z,5.80
2023-02-06T14:12:24.993Z,5.90
2023-02-06T14:16:52.723Z,5.90
2023-02-06T14:21:16.311Z,5.90
2023-02-06T14:25:50.437Z,6.00
2023-02-06T14:30:16.812Z,5.90
2023-02-06T14:39:02.704Z,5.90
2023-02-06T14:43:16.466Z,5.90
2023-02-06T14:47:28.100Z,5.90
2023-02-06T14:51:41.296Z,5.90
2023-02-06T14:55:50.292Z,6.00
2023-02-06T15:00:04.437Z,6.00
2023-02-06T15:04:15.674Z,6.00
2023-02-06T15:08:24.227Z,5.90
2023-02-06T15:12:33.053Z,5.90
2023-02-06T15:16:49.824Z,5.90
2023-02-06T15:21:13.306Z,5.90
2023-02-06T15:25:45.737Z,5.90
2023-02-06T15:29:54.843Z,6.00
2023-02-06T15:34:03.966Z,6.00
2023-02-06T15:38:15.274Z,6.00
2023-02-06T15:42:24.188Z,6.00
2023-02-06T15:46:33.098Z,6.00
2023-02-06T15:50:41.671Z,6.00
2023-02-06T15:54:53.317Z,6.00
2023-02-06T15:59:07.671Z,6.00
2023-02-06T16:03:22.128Z,6.00
2023-02-06T16:07:35.261Z,5.90
2023-02-06T16:11:46.509Z,6.00
2023-02-06T16:16:10.106Z,5.90
2023-02-06T16:20:27.772Z,5.80
2023-02-06T16:24:36.451Z,5.80
2023-02-06T16:29:02.735Z,5.70
2023-02-06T16:33:14.375Z,5.70
2023-02-06T16:37:26.087Z,5.70
2023-02-06T16:41:37.477Z,5.60
2023-02-06T16:45:46.551Z,5.50
2023-02-06T16:49:55.242Z,5.40
2023-02-06T16:54:05.330Z,5.40
2023-02-06T16:58:17.944Z,5.30
2023-02-06T17:02:28.043Z,5.20
2023-02-06T17:06:37.445Z,5.20
2023-02-06T17:10:46.921Z,5.10
2023-02-06T17:14:55.501Z,5.10
2023-02-06T17:19:04.143Z,5.00
2023-02-06T17:23:14.136Z,4.80
2023-02-06T17:27:23.735Z,4.80
2023-02-06T17:31:32.375Z,4.80
2023-02-06T17:35:40.950Z,4.80
2023-02-06T17:39:51.249Z,4.80
2023-02-06T17:43:59.809Z,4.70
2023-02-06T17:48:09.123Z,4.60
2023-02-06T17:52:18.236Z,4.50
2023-02-06T17:56:27.072Z,4.40
2023-02-06T18:00:35.933Z,4.40
2023-02-06T18:04:46.309Z,4.40
2023-02-06T18:08:54.881Z,4.40
2023-02-06T18:13:03.439Z,4.30
2023-02-06T18:17:12.670Z,4.20
2023-02-06T18:21:23.718Z,4.20
2023-02-06T18:25:32.253Z,4.30
2023-02-06T18:29:50.699Z,4.30
2023-02-06T18:33:58.563Z,4.20
2023-02-06T18:38:08.753Z,4.10
2023-02-06T18:42:35.395Z,4.10
2023-02-06T18:46:44.110Z,4.10
2023-02-06T18:50:52.755Z,4.10
2023-02-06T18:55:01.401Z,4.00
2023-02-06T18:59:09.956Z,4.00
2023-02-06T19:03:25.096Z,4.00
2023-02-06T19:07:33.767Z,4.00
2023-02-06T19:11:44.730Z,4.00
2023-02-06T19:15:56.391Z,4.00
2023-02-06T19:20:05.660Z,4.10
2023-02-06T19:24:15.967Z,4.00
2023-02-06T19:28:24.539Z,4.00
2023-02-06T19:32:34.832Z,4.00
2023-02-06T19:36:43.607Z,4.00
2023-02-06T19:40:53.630Z,3.90
2023-02-06T19:45:03.869Z,3.90
2023-02-06T19:49:12.610Z,3.90
2023-02-06T19:53:21.128Z,3.90
2023-02-06T19:57:29.696Z,4.00
2023-02-06T20:01:38.357Z,4.00
2023-02-06T20:05:46.948Z,3.90
2023-02-06T20:09:57.281Z,3.90
2023-02-06T20:14:06.309Z,3.90
2023-02-06T20:18:16.647Z,3.80
2023-02-06T20:22:26.618Z,3.60
2023-02-06T20:26:37.670Z,3.60
2023-02-06T20:30:48.004Z,3.50
2023-02-06T20:34:58.366Z,3.40
2023-02-06T20:39:08.702Z,3.30
2023-02-06T20:43:17.353Z,3.30
2023-02-06T20:47:35.498Z,3.30
2023-02-06T20:51:44.163Z,3.30
2023-02-06T20:55:53.159Z,3.20
2023-02-06T21:00:01.731Z,3.10
2023-02-06T21:04:12.297Z,3.10
2023-02-06T21:08:22.627Z,3.10
2023-02-06T21:12:31.165Z,3.00
2023-02-06T21:16:40.690Z,2.80
2023-02-06T21:20:50.126Z,2.80
2023-02-06T21:24:59.161Z,2.90
2023-02-06T21:29:08.030Z,2.90
2023-02-06T21:33:21.471Z,3.00
2023-02-06T21:37:30.031Z,2.90
2023-02-06T21:41:38.753Z,2.90
2023-02-06T21:45:48.805Z,3.00
2023-02-06T21:49:59.187Z,3.10
2023-02-06T21:54:08.192Z,3.10
2023-02-06T21:58:16.808Z,3.10
2023-02-06T22:02:25.383Z,3.00
2023-02-06T22:06:37.774Z,3.00
2023-02-06T22:10:46.332Z,3.00
2023-02-06T22:14:56.414Z,3.00
2023-02-06T22:19:06.357Z,2.90
2023-02-06T22:23:14.856Z,2.90
2023-02-06T22:27:25.422Z,2.80
2023-02-06T22:31:35.335Z,2.70
2023-02-06T22:35:43.974Z,2.60
2023-02-06T22:39:54.058Z,2.70
2023-02-06T22:44:02.992Z,2.70
2023-02-06T22:48:11.551Z,2.70
2023-02-06T22:52:37.939Z,2.70
2023-02-06T22:56:46.882Z,2.70
2023-02-06T23:00:58.515Z,2.70
2023-02-06T23:05:07.299Z,2.70
2023-02-06T23:09:19.073Z,2.70
2023-02-06T23:13:27.883Z,2.60
2023-02-06T23:17:36.448Z,2.50
2023-02-06T23:21:46.745Z,2.50
2023-02-06T23:25:55.823Z,2.50
2023-02-06T23:30:04.645Z,2.50
2023-02-06T23:34:13.813Z,2.40
2023-02-06T23:38:22.418Z,2.50
2023-02-06T23:42:31.065Z,2.40
2023-02-06T23:46:40.651Z,2.30
2023-02-06T23:50:49.187Z,2.30
2023-02-06T23:54:57.750Z,2.40
2023-02-06T23:59:07.397Z,2.50
